createdAt,value
2022-08-05T00:02:19.409Z,29.92
2022-08-05T00:04:47.308Z,29.93
2022-08-05T00:07:58.917Z,29.93
2022-08-05T00:10:09.190Z,29.92
2022-08-05T00:12:35.741Z,29.92
2022-08-05T00:15:54.913Z,29.92
2022-08-05T00:18:08.939Z,29.90
2022-08-05T00:20:47.973Z,29.92
2022-08-05T00:23:15.213Z,29.89
2022-08-05T00:25:45.467Z,29.87
2022-08-05T00:28:12.900Z,29.88
2022-08-05T00:30:39.357Z,29.86
2022-08-05T00:33:15.509Z,29.87
2022-08-05T00:36:16.503Z,29.86
2022-08-05T00:38:41.558Z,29.85
2022-08-05T00:41:11.745Z,29.86
2022-08-05T00:43:47.221Z,29.85
2022-08-05T00:46:16.200Z,29.84
2022-08-05T00:48:51.233Z,29.83
2022-08-05T00:51:50.596Z,29.83
2022-08-05T00:54:05.733Z,29.83
2022-08-05T00:56:32.237Z,29.83
2022-08-05T00:58:59.225Z,29.83
2022-08-05T01:01:42.729Z,29.83
2022-08-05T01:04:14.116Z,29.80
2022-08-05T01:06:46.684Z,29.80
2022-08-05T01:09:17.360Z,29.80
2022-08-05T01:11:49.400Z,29.80
2022-08-05T01:14:40.589Z,29.81
2022-08-05T01:17:10.794Z,29.79
2022-08-05T01:20:00.845Z,29.78
2022-08-05T01:22:47.603Z,29.80
2022-08-05T01:25:54.726Z,29.76
2022-08-05T01:28:39.414Z,29.76
2022-08-05T01:31:26.305Z,29.76
2022-08-05T01:34:09.294Z,29.74
2022-08-05T01:36:46.905Z,29.76
2022-08-05T01:39:16.163Z,29.76
2022-08-05T01:42:04.415Z,29.74
2022-08-05T01:44:35.253Z,29.72
2022-08-05T01:47:02.617Z,29.72
2022-08-05T01:50:00.174Z,29.72
2022-08-05T01:52:22.531Z,29.71
2022-08-05T01:54:52.999Z,29.70
2022-08-05T01:58:29.399Z,29.72
2022-08-05T02:00:14.133Z,29.70
2022-08-05T02:02:51.189Z,29.69
2022-08-05T02:05:23.471Z,29.69
2022-08-05T02:08:00.006Z,29.68
2022-08-05T02:10:34.785Z,29.68
2022-08-05T02:13:16.807Z,29.69
2022-08-05T02:15:45.775Z,29.68
2022-08-05T02:18:28.706Z,29.66
2022-08-05T02:21:15.210Z,29.66
2022-08-05T02:23:46.256Z,29.65
2022-08-05T02:26:14.951Z,29.65
2022-08-05T02:28:45.890Z,29.65
2022-08-05T02:31:17.138Z,29.64
2022-08-05T02:33:57.488Z,29.63
2022-08-05T02:36:27.537Z,29.63
2022-08-05T02:38:56.815Z,29.63
2022-08-05T02:41:28.561Z,29.64
2022-08-05T02:44:12.244Z,29.62
2022-08-05T02:46:43.936Z,29.62
2022-08-05T02:49:36.424Z,29.62
2022-08-05T02:52:07.755Z,29.59
2022-08-05T02:54:37.450Z,29.60
2022-08-05T02:58:10.464Z,29.60
2022-08-05T02:59:57.991Z,29.61
2022-08-05T03:02:29.579Z,29.61
2022-08-05T03:04:57.850Z,29.59
2022-08-05T03:08:00.736Z,29.60
2022-08-05T03:10:22.011Z,29.61
2022-08-05T03:12:52.807Z,29.60
2022-08-05T03:15:20.501Z,29.60
2022-08-05T03:17:46.983Z,29.57
2022-08-05T03:20:13.931Z,29.61
2022-08-05T03:22:45.938Z,29.58
2022-08-05T03:25:32.659Z,29.57
2022-08-05T03:28:08.520Z,29.57
2022-08-05T03:30:36.762Z,29.55
2022-08-05T03:33:06.328Z,29.56
2022-08-05T03:35:40.875Z,29.58
2022-08-05T03:38:10.921Z,29.53
2022-08-05T03:40:41.021Z,29.55
2022-08-05T03:43:59.131Z,29.54
2022-08-05T03:45:57.469Z,29.55
2022-08-05T03:48:26.733Z,29.53
2022-08-05T03:50:59.194Z,29.53
2022-08-05T03:55:53.226Z,29.53
2022-08-05T03:56:47.374Z,29.52
2022-08-05T03:59:46.984Z,29.50
2022-08-05T04:02:17.591Z,29.51
2022-08-05T04:05:03.386Z,29.50
2022-08-05T04:07:30.968Z,29.49
2022-08-05T04:09:59.998Z,29.49
2022-08-05T04:12:29.898Z,29.49
2022-08-05T04:14:59.424Z,29.48
2022-08-05T04:17:55.555Z,29.48
2022-08-05T04:20:23.224Z,29.49
2022-08-05T04:22:50.101Z,29.48
2022-08-05T04:25:17.111Z,29.48
2022-08-05T04:27:57.409Z,29.48
2022-08-05T04:30:24.721Z,29.48
2022-08-05T04:32:53.164Z,29.47
2022-08-05T04:35:20.062Z,29.46
2022-08-05T04:38:02.126Z,29.46
2022-08-05T04:40:29.601Z,29.45
2022-08-05T04:42:56.042Z,29.45
2022-08-05T04:45:47.878Z,29.45
2022-08-05T04:48:18.501Z,29.45
2022-08-05T04:51:01.906Z,29.45
2022-08-05T04:53:36.660Z,29.46
2022-08-05T04:56:33.516Z,29.44
2022-08-05T04:58:53.730Z,29.43
2022-08-05T05:02:06.326Z,29.45
2022-08-05T05:04:06.624Z,29.43
2022-08-05T05:06:35.842Z,29.43
2022-08-05T05:09:14.255Z,29.44
2022-08-05T05:11:53.901Z,29.42
2022-08-05T05:14:27.708Z,29.42
2022-08-05T05:16:59.911Z,29.41
2022-08-05T05:19:36.199Z,29.42
2022-08-05T05:22:24.473Z,29.41
2022-08-05T05:24:58.868Z,29.40
2022-08-05T05:27:41.217Z,29.38
2022-08-05T05:30:15.579Z,29.39
2022-08-05T05:32:56.311Z,29.39
2022-08-05T05:35:23.094Z,29.38
2022-08-05T05:37:59.381Z,29.38
2022-08-05T05:40:29.176Z,29.40
2022-08-05T05:42:57.158Z,29.35
2022-08-05T05:45:24.555Z,29.33
2022-08-05T05:48:06.314Z,29.36
2022-08-05T05:50:34.760Z,29.34
2022-08-05T05:53:20.993Z,29.35
2022-08-05T05:55:52.364Z,29.38
2022-08-05T05:58:31.380Z,29.38
2022-08-05T06:01:12.297Z,29.40
2022-08-05T06:04:01.327Z,29.41
2022-08-05T06:06:33.031Z,29.42
2022-08-05T06:09:00.307Z,29.41
2022-08-05T06:11:29.050Z,29.42
2022-08-05T06:13:56.640Z,29.43
2022-08-05T06:16:28.193Z,29.43
2022-08-05T06:19:00.935Z,29.44
2022-08-05T06:21:36.505Z,29.41
2022-08-05T06:24:04.570Z,29.30
2022-08-05T06:26:33.816Z,29.29
2022-08-05T06:29:06.039Z,29.19
2022-08-05T06:31:48.143Z,29.23
2022-08-05T06:34:20.163Z,29.24
2022-08-05T06:36:56.755Z,29.27
2022-08-05T06:39:27.110Z,29.26
2022-08-05T06:41:54.257Z,29.24
2022-08-05T06:44:22.014Z,29.13
2022-08-05T06:46:51.153Z,28.81
2022-08-05T06:49:18.843Z,28.66
2022-08-05T06:51:47.795Z,28.46
2022-08-05T06:54:19.131Z,28.28
2022-08-05T06:56:54.813Z,28.02
2022-08-05T06:59:38.896Z,28.15
2022-08-05T07:02:08.718Z,28.25
2022-08-05T07:04:35.330Z,28.37
2022-08-05T07:07:03.269Z,28.47
2022-08-05T07:09:37.328Z,28.55
2022-08-05T07:12:07.537Z,28.63
2022-08-05T07:14:54.113Z,28.70
2022-08-05T07:17:58.539Z,28.78
2022-08-05T07:20:32.098Z,28.84
2022-08-05T07:22:54.522Z,28.92
2022-08-05T07:25:54.153Z,28.97
2022-08-05T07:28:11.488Z,29.01
2022-08-05T07:30:39.845Z,29.05
2022-08-05T07:33:10.575Z,29.14
2022-08-05T07:36:02.191Z,29.23
2022-08-05T07:38:34.237Z,29.27
2022-08-05T07:42:06.836Z,29.36
2022-08-05T07:43:58.867Z,29.44
2022-08-05T07:46:31.071Z,29.44
2022-08-05T07:49:03.978Z,29.50
2022-08-05T07:51:40.942Z,29.51
2022-08-05T07:54:22.013Z,29.52
2022-08-05T07:57:02.876Z,29.56
2022-08-05T07:59:40.129Z,29.59
2022-08-05T08:02:16.632Z,29.58
2022-08-05T08:04:49.186Z,29.59
2022-08-05T08:07:22.855Z,29.63
2022-08-05T08:09:52.559Z,29.61
2022-08-05T08:12:35.134Z,29.65
2022-08-05T08:15:14.033Z,29.71
2022-08-05T08:17:45.993Z,29.70
2022-08-05T08:20:43.862Z,29.71
2022-08-05T08:23:03.821Z,29.73
2022-08-05T08:25:59.338Z,29.73
2022-08-05T08:28:18.752Z,29.72
2022-08-05T08:31:04.325Z,29.77
2022-08-05T08:33:37.456Z,29.81
2022-08-05T08:36:38.967Z,29.81
2022-08-05T08:38:55.393Z,29.81
2022-08-05T08:41:26.122Z,29.79
2022-08-05T08:45:23.384Z,29.83
2022-08-05T08:46:59.870Z,29.85
2022-08-05T08:50:05.891Z,29.87
2022-08-05T08:52:24.953Z,29.85
2022-08-05T08:54:55.545Z,29.88
2022-08-05T08:57:24.976Z,29.91
2022-08-05T09:00:10.005Z,29.87
2022-08-05T09:02:37.272Z,29.88
2022-08-05T09:05:17.493Z,29.88
2022-08-05T09:07:57.787Z,29.88
2022-08-05T09:10:27.129Z,29.90
2022-08-05T09:13:04.811Z,29.89
2022-08-05T09:15:32.143Z,29.90
2022-08-05T09:18:06.132Z,29.94
2022-08-05T09:20:37.403Z,29.91
2022-08-05T09:23:18.940Z,29.85
2022-08-05T09:26:01.913Z,29.86
2022-08-05T09:28:33.588Z,29.88
2022-08-05T09:31:23.417Z,29.86
2022-08-05T09:33:58.720Z,29.88
2022-08-05T09:36:54.154Z,29.91
2022-08-05T09:39:23.021Z,29.94
2022-08-05T09:42:00.739Z,29.92
2022-08-05T09:44:34.615Z,29.93
2022-08-05T09:47:15.388Z,29.93
2022-08-05T09:50:01.503Z,29.94
2022-08-05T09:52:36.274Z,29.95
2022-08-05T09:55:57.087Z,29.93
2022-08-05T09:57:59.989Z,29.92
2022-08-05T10:00:29.514Z,29.92
2022-08-05T10:02:58.264Z,29.92
2022-08-05T10:05:28.030Z,29.91
2022-08-05T10:08:10.987Z,29.91
2022-08-05T10:10:50.256Z,29.88
2022-08-05T10:13:47.175Z,29.87
2022-08-05T10:16:37.810Z,29.86
2022-08-05T10:19:09.514Z,29.86
2022-08-05T10:21:40.382Z,29.85
2022-08-05T10:24:10.532Z,29.84
2022-08-05T10:26:51.397Z,29.83
2022-08-05T10:29:23.458Z,29.82
2022-08-05T10:32:53.604Z,29.81
2022-08-05T10:34:37.791Z,29.80
2022-08-05T10:37:07.976Z,29.77
2022-08-05T10:39:59.492Z,29.79
2022-08-05T10:42:33.525Z,29.78
2022-08-05T10:45:01.886Z,29.77
2022-08-05T10:48:29.808Z,29.76
2022-08-05T10:51:29.771Z,29.74
2022-08-05T10:54:06.006Z,29.72
2022-08-05T10:56:53.459Z,29.73
2022-08-05T11:00:03.338Z,29.70
2022-08-05T11:02:38.157Z,29.71
2022-08-05T11:05:11.985Z,29.69
2022-08-05T11:08:21.675Z,29.67
2022-08-05T11:11:01.138Z,29.66
2022-08-05T11:13:57.655Z,29.65
2022-08-05T11:16:47.523Z,29.64
2022-08-05T11:20:10.556Z,29.61
2022-08-05T11:22:39.632Z,29.60
2022-08-05T11:26:04.343Z,29.58
2022-08-05T11:28:23.235Z,29.58
2022-08-05T11:30:58.467Z,29.59
2022-08-05T11:33:46.573Z,29.58
2022-08-05T11:36:34.385Z,29.56
2022-08-05T11:39:10.225Z,29.56
2022-08-05T11:42:01.648Z,29.57
2022-08-05T11:44:52.906Z,29.56
2022-08-05T11:47:49.998Z,29.55
2022-08-05T11:50:15.977Z,29.54
2022-08-05T11:52:46.181Z,29.54
2022-08-05T11:55:17.342Z,29.53
2022-08-05T11:58:10.188Z,29.53
2022-08-05T12:00:38.225Z,29.53
2022-08-05T12:03:31.556Z,29.54
2022-08-05T12:06:06.074Z,29.52
2022-08-05T12:08:49.713Z,29.48
2022-08-05T12:11:28.349Z,29.49
2022-08-05T12:14:10.781Z,29.48
2022-08-05T12:16:46.383Z,29.49
2022-08-05T12:20:17.247Z,29.48
2022-08-05T12:22:09.679Z,29.47
2022-08-05T12:24:49.535Z,29.45
2022-08-05T12:27:33.012Z,29.43
2022-08-05T12:30:09.524Z,29.42
2022-08-05T12:32:52.424Z,29.41
2022-08-05T12:35:23.415Z,29.41
2022-08-05T12:38:08.554Z,29.39
2022-08-05T12:40:39.663Z,29.38
2022-08-05T12:43:20.919Z,29.38
2022-08-05T12:45:58.312Z,29.38
2022-08-05T12:48:32.968Z,29.37
2022-08-05T12:52:11.210Z,29.36
2022-08-05T12:54:14.671Z,29.33
2022-08-05T12:56:55.220Z,29.33
2022-08-05T12:59:46.921Z,29.34
2022-08-05T13:02:30.483Z,29.33
2022-08-05T13:04:59.961Z,29.34
2022-08-05T13:07:57.715Z,29.30
2022-08-05T13:10:19.738Z,29.31
2022-08-05T13:12:57.581Z,29.30
2022-08-05T13:15:41.886Z,29.30
2022-08-05T13:18:24.008Z,29.30
2022-08-05T13:20:53.402Z,29.30
2022-08-05T13:23:22.584Z,29.30
2022-08-05T13:25:59.743Z,29.32
2022-08-05T13:28:32.196Z,29.33
2022-08-05T13:31:10.913Z,29.33
2022-08-05T13:34:24.931Z,29.33
2022-08-05T13:36:34.374Z,29.33
2022-08-05T13:39:24.134Z,29.34
2022-08-05T13:41:51.742Z,29.33
2022-08-05T13:44:19.731Z,29.33
2022-08-05T13:47:04.807Z,29.32
2022-08-05T13:49:35.250Z,29.33
2022-08-05T13:52:16.435Z,29.29
2022-08-05T13:54:43.438Z,29.31
2022-08-05T13:57:20.856Z,29.30
2022-08-05T13:59:55.370Z,29.29
2022-08-05T14:02:26.478Z,29.28
2022-08-05T14:05:12.044Z,29.28
2022-08-05T14:08:00.111Z,29.28
2022-08-05T14:10:31.021Z,29.26
2022-08-05T14:12:58.362Z,29.25
2022-08-05T14:16:08.908Z,29.24
2022-08-05T14:18:13.132Z,29.25
2022-08-05T14:20:47.319Z,29.25
2022-08-05T14:23:19.240Z,29.25
2022-08-05T14:25:53.939Z,29.25
2022-08-05T14:28:27.059Z,29.24
2022-08-05T14:30:54.964Z,29.25
2022-08-05T14:33:22.846Z,29.24
2022-08-05T14:35:51.858Z,29.24
2022-08-05T14:38:33.000Z,29.24
2022-08-05T14:41:07.400Z,29.27
2022-08-05T14:43:57.619Z,29.23
2022-08-05T14:46:29.076Z,29.22
2022-08-05T14:49:06.949Z,29.21
2022-08-05T14:51:36.382Z,29.23
2022-08-05T14:54:26.045Z,29.23
2022-08-05T14:56:51.080Z,29.21
2022-08-05T14:59:21.763Z,29.22
2022-08-05T15:01:49.799Z,29.21
2022-08-05T15:04:22.335Z,29.19
2022-08-05T15:06:50.797Z,29.19
2022-08-05T15:09:52.561Z,29.17
2022-08-05T15:12:05.731Z,29.14
2022-08-05T15:14:34.579Z,29.14
2022-08-05T15:17:09.792Z,29.12
2022-08-05T15:19:55.821Z,29.10
2022-08-05T15:22:22.571Z,29.09
2022-08-05T15:24:54.159Z,29.09
2022-08-05T15:27:20.718Z,29.10
2022-08-05T15:29:47.257Z,29.09
2022-08-05T15:32:16.482Z,29.11
2022-08-05T15:34:43.259Z,29.10
2022-08-05T15:37:14.814Z,29.08
2022-08-05T15:41:01.708Z,29.09
2022-08-05T15:42:54.187Z,29.09
2022-08-05T15:45:17.010Z,29.11
2022-08-05T15:47:45.677Z,29.09
2022-08-05T15:50:15.821Z,29.10
2022-08-05T15:52:53.013Z,29.10
2022-08-05T15:55:25.034Z,29.07
2022-08-05T15:58:08.234Z,29.09
2022-08-05T16:01:03.391Z,29.08
2022-08-05T16:03:21.275Z,29.06
2022-08-05T16:05:52.418Z,29.07
2022-08-05T16:08:19.331Z,29.09
2022-08-05T16:10:45.889Z,29.08
2022-08-05T16:13:12.583Z,29.08
2022-08-05T16:15:51.763Z,29.09
2022-08-05T16:18:18.704Z,29.09
2022-08-05T16:20:46.318Z,29.07
2022-08-05T16:23:12.901Z,29.08
2022-08-05T16:25:40.024Z,29.08
2022-08-05T16:28:09.815Z,29.08
2022-08-05T16:30:37.358Z,29.08
2022-08-05T16:33:04.071Z,29.07
2022-08-05T16:35:32.500Z,29.07
2022-08-05T16:38:15.980Z,29.06
2022-08-05T16:40:55.097Z,29.05
2022-08-05T16:43:31.014Z,29.05
2022-08-05T16:46:07.828Z,29.04
2022-08-05T16:48:39.500Z,29.05
2022-08-05T16:51:09.212Z,29.04
2022-08-05T16:54:06.230Z,29.02
2022-08-05T16:56:24.787Z,29.03
2022-08-05T16:58:51.367Z,29.02
2022-08-05T17:01:18.851Z,29.01
2022-08-05T17:03:45.819Z,29.01
2022-08-05T17:06:12.993Z,29.01
2022-08-05T17:08:52.676Z,28.99
2022-08-05T17:11:25.307Z,29.00
2022-08-05T17:14:00.550Z,28.98
2022-08-05T17:16:36.640Z,28.98
2022-08-05T17:19:06.996Z,28.94
2022-08-05T17:21:35.484Z,28.94
2022-08-05T17:24:19.569Z,28.97
2022-08-05T17:26:50.302Z,28.92
2022-08-05T17:29:17.234Z,28.93
2022-08-05T17:31:58.622Z,28.93
2022-08-05T17:34:29.697Z,28.94
2022-08-05T17:36:58.579Z,28.91
2022-08-05T17:39:34.109Z,28.88
2022-08-05T17:42:19.922Z,28.89
2022-08-05T17:44:50.485Z,28.89
2022-08-05T17:47:21.748Z,28.89
2022-08-05T17:49:52.023Z,28.86
2022-08-05T17:52:32.217Z,28.83
2022-08-05T17:54:59.507Z,28.84
2022-08-05T17:57:26.184Z,28.83
2022-08-05T18:00:03.685Z,28.80
2022-08-05T18:02:34.133Z,28.81
2022-08-05T18:05:07.615Z,28.81
2022-08-05T18:07:41.618Z,28.79
2022-08-05T18:10:11.011Z,28.78
2022-08-05T18:12:38.266Z,28.78
2022-08-05T18:15:05.926Z,28.74
2022-08-05T18:18:00.441Z,28.75
2022-08-05T18:20:29.024Z,28.75
2022-08-05T18:23:00.699Z,28.73
2022-08-05T18:25:38.880Z,28.73
2022-08-05T18:28:09.319Z,28.71
2022-08-05T18:30:36.310Z,28.70
2022-08-05T18:33:06.291Z,28.71
2022-08-05T18:36:00.583Z,28.71
2022-08-05T18:38:26.127Z,28.69
2022-08-05T18:41:58.534Z,28.67
2022-08-05T18:43:43.229Z,28.68
2022-08-05T18:46:19.779Z,28.67
2022-08-05T18:48:48.246Z,28.66
2022-08-05T18:52:03.179Z,28.65
2022-08-05T18:54:27.570Z,28.65
2022-08-05T18:56:57.225Z,28.66
2022-08-05T18:59:43.352Z,28.63
2022-08-05T19:02:24.600Z,28.64
2022-08-05T19:05:02.783Z,28.61
2022-08-05T19:07:48.098Z,28.62
2022-08-05T19:10:16.324Z,28.61
2022-08-05T19:12:43.795Z,28.61
2022-08-05T19:15:57.537Z,28.60
2022-08-05T19:18:09.199Z,28.60
2022-08-05T19:20:41.367Z,28.58
2022-08-05T19:24:04.543Z,28.59
2022-08-05T19:26:01.595Z,28.58
2022-08-05T19:28:30.262Z,28.57
2022-08-05T19:30:56.855Z,28.56
2022-08-05T19:33:35.015Z,28.56
2022-08-05T19:36:02.627Z,28.56
2022-08-05T19:38:29.218Z,28.54
2022-08-05T19:40:55.720Z,28.54
2022-08-05T19:44:04.560Z,28.53
2022-08-05T19:46:16.825Z,28.52
2022-08-05T19:48:55.418Z,28.53
2022-08-05T19:52:04.790Z,28.53
2022-08-05T19:54:25.419Z,28.51
2022-08-05T19:56:57.547Z,28.51
2022-08-05T19:59:59.391Z,28.47
2022-08-05T20:02:10.617Z,28.47
2022-08-05T20:04:37.779Z,28.46
2022-08-05T20:07:13.107Z,28.46
2022-08-05T20:09:54.807Z,28.44
2022-08-05T20:12:24.993Z,28.44
2022-08-05T20:14:52.990Z,28.44
2022-08-05T20:17:23.522Z,28.43
2022-08-05T20:19:51.069Z,28.40
2022-08-05T20:22:23.941Z,28.42
2022-08-05T20:24:53.685Z,28.42
2022-08-05T20:27:21.070Z,28.38
2022-08-05T20:29:58.406Z,28.40
2022-08-05T20:32:26.471Z,28.40
2022-08-05T20:34:53.323Z,28.38
2022-08-05T20:38:06.770Z,28.38
2022-08-05T20:40:10.311Z,28.38
2022-08-05T20:42:37.392Z,28.37
2022-08-05T20:45:05.427Z,28.36
2022-08-05T20:47:32.844Z,28.35
2022-08-05T20:50:01.967Z,28.36
2022-08-05T20:52:29.775Z,28.34
2022-08-05T20:55:55.623Z,28.32
2022-08-05T20:57:44.651Z,28.33
2022-08-05T21:00:40.809Z,28.29
2022-08-05T21:03:06.916Z,28.32
2022-08-05T21:05:48.423Z,28.30
2022-08-05T21:08:32.875Z,28.30
2022-08-05T21:11:10.331Z,28.30
2022-08-05T21:13:47.776Z,28.27
2022-08-05T21:16:29.963Z,28.28
2022-08-05T21:19:00.456Z,28.27
2022-08-05T21:21:44.131Z,28.26
2022-08-05T21:24:12.895Z,28.27
2022-08-05T21:26:40.075Z,28.25
2022-08-05T21:29:09.922Z,28.26
2022-08-05T21:31:41.263Z,28.23
2022-08-05T21:34:10.601Z,28.24
2022-08-05T21:36:37.906Z,28.23
2022-08-05T21:39:04.844Z,28.24
2022-08-05T21:41:34.209Z,28.22
2022-08-05T21:44:04.288Z,28.21
2022-08-05T21:46:34.226Z,28.21
2022-08-05T21:49:02.779Z,28.21
2022-08-05T21:52:21.871Z,28.21
2022-08-05T21:54:31.094Z,28.19
2022-08-05T22:00:03.280Z,28.17
2022-08-05T22:02:32.195Z,28.16
2022-08-05T22:04:58.837Z,28.16
2022-08-05T22:07:39.756Z,28.16
2022-08-05T22:10:12.344Z,28.15
2022-08-05T22:12:40.332Z,28.15
2022-08-05T22:15:16.666Z,28.14
2022-08-05T22:18:00.898Z,28.13
2022-08-05T22:20:27.459Z,28.10
2022-08-05T22:23:21.687Z,28.13
2022-08-05T22:26:11.102Z,28.08
2022-08-05T22:28:38.726Z,28.09
2022-08-05T22:31:06.285Z,28.10
2022-08-05T22:33:56.669Z,28.09
2022-08-05T22:36:24.077Z,28.08
2022-08-05T22:38:51.162Z,28.07
2022-08-05T22:42:04.820Z,28.05
2022-08-05T22:44:08.387Z,28.05
2022-08-05T22:46:39.430Z,28.07
2022-08-05T22:49:06.614Z,28.04
2022-08-05T22:52:04.672Z,28.04
2022-08-05T22:54:19.589Z,28.03
2022-08-05T22:56:50.250Z,28.03
2022-08-05T22:59:45.191Z,28.02
2022-08-05T23:02:05.644Z,28.02
2022-08-05T23:04:34.471Z,28.03
2022-08-05T23:07:01.362Z,28.02
2022-08-05T23:09:53.310Z,28.01
2022-08-05T23:12:17.735Z,28.00
2022-08-05T23:14:44.648Z,28.00
2022-08-05T23:17:35.006Z,27.96
2022-08-05T23:20:10.387Z,27.98
2022-08-05T23:22:47.135Z,27.97
2022-08-05T23:25:17.080Z,27.98
2022-08-05T23:28:00.387Z,27.95
2022-08-05T23:30:29.141Z,27.96
2022-08-05T23:32:57.735Z,27.96
2022-08-05T23:35:28.582Z,27.96
2022-08-05T23:38:01.054Z,27.95
2022-08-05T23:40:27.623Z,27.92
2022-08-05T23:42:54.145Z,27.93
2022-08-05T23:45:20.894Z,27.92
2022-08-05T23:47:50.471Z,27.92
2022-08-05T23:50:20.525Z,27.92
2022-08-05T23:52:50.555Z,27.93
2022-08-05T23:55:18.976Z,27.90
2022-08-05T23:57:51.246Z,27.90
